Time;durP1;ratioP1;P1;durP2;ratioP2;P2;SDS_P1;SDS_P2;PMS_P1;PMS_P2;Temp;Humidity;BMP_temperature;BMP_pressure;BME280_temperature;BME280_humidity;BME280_pressure;Samples;Min_cycle;Max_cycle;Signal;HPM_P1;HPM_P2
2023/06/11 00:02:34;;;;;;;14.57;8.07;;;;;;;21.07;60.55;99355.09;7749609;32;38851;-79
2023/06/11 00:06:54;;;;;;;15.88;8.13;;;;;;;20.79;61.25;99351.16;7763654;32;37251;-79
2023/06/11 00:11:11;;;;;;;13.18;8.05;;;;;;;20.90;60.71;99354.22;7763622;32;40159;-77
2023/06/11 00:15:27;;;;;;;12.00;7.28;;;;;;;20.74;61.38;99364.47;7763837;32;41014;-78
2023/06/11 00:19:44;;;;;;;11.50;7.00;;;;;;;20.74;61.00;99364.47;7752981;32;38454;-79
2023/06/11 00:24:00;;;;;;;11.93;7.40;;;;;;;20.78;60.81;99368.13;7766828;32;37139;-80
2023/06/11 00:28:17;;;;;;;11.93;7.05;;;;;;;20.53;61.83;99370.94;7766405;32;39331;-79
2023/06/11 00:32:35;;;;;;;11.98;7.12;;;;;;;20.52;61.81;99376.81;7766571;32;40835;-78
2023/06/11 00:36:52;;;;;;;13.10;7.53;;;;;;;20.58;61.74;99378.19;7766644;32;38164;-78
2023/06/11 00:41:08;;;;;;;11.50;7.65;;;;;;;20.61;61.80;99370.00;7766589;32;37914;-80
2023/06/11 00:45:27;;;;;;;11.73;7.78;;;;;;;20.65;62.27;99374.88;7766626;32;39263;-77
2023/06/11 00:49:44;;;;;;;15.52;7.40;;;;;;;20.36;63.45;99363.69;7766583;32;40330;-78
2023/06/11 00:54:01;;;;;;;13.40;8.30;;;;;;;20.38;63.38;99372.44;7752385;32;38617;-79
2023/06/11 00:58:17;;;;;;;12.73;8.18;;;;;;;20.38;63.17;99363.34;7766395;32;37396;-79
2023/06/11 01:02:47;;;;;;;17.62;10.18;;;;;;;20.31;63.07;99357.59;7766418;32;39246;-79
2023/06/11 01:07:06;;;;;;;13.45;7.35;;;;;;;20.50;61.90;99363.31;7753559;32;39908;-79
2023/06/11 01:11:23;;;;;;;10.80;6.68;;;;;;;20.43;59.97;99357.56;7752614;32;37902;-79
2023/06/11 01:15:39;;;;;;;11.90;7.65;;;;;;;20.48;59.23;99354.56;7766081;32;38296;-78
2023/06/11 01:20:14;;;;;;;14.93;8.88;;;;;;;20.11;60.56;99353.78;7765864;32;39172;-78
2023/06/11 01:24:57;;;;;;;16.95;8.27;;;;;;;20.29;60.38;99351.59;7766044;32;40758;-78
2023/06/11 01:29:15;;;;;;;14.73;6.93;;;;;;;20.60;58.24;99349.00;7765133;32;38829;-77
2023/06/11 01:33:35;;;;;;;15.32;7.90;;;;;;;20.48;58.77;99342.69;7752286;32;37985;-78
2023/06/11 01:37:55;;;;;;;10.98;7.30;;;;;;;20.38;59.34;99346.72;7765953;32;40098;-77
2023/06/11 01:42:12;;;;;;;14.00;7.80;;;;;;;20.41;58.76;99340.50;7765848;32;40008;-78
2023/06/11 01:46:28;;;;;;;9.63;6.55;;;;;;;20.24;58.48;99334.06;7765721;32;38700;-79
2023/06/11 01:50:45;;;;;;;11.82;6.80;;;;;;;20.30;58.00;99347.66;7765787;32;37060;-78
2023/06/11 01:55:01;;;;;;;9.60;5.60;;;;;;;20.38;57.53;99349.50;7765539;32;39527;-78
2023/06/11 01:59:17;;;;;;;9.30;6.00;;;;;;;20.50;57.06;99346.72;7765639;32;39959;-78
2023/06/11 02:03:34;;;;;;;10.77;5.40;;;;;;;20.60;57.22;99348.19;7765698;32;38731;-78
2023/06/11 02:07:50;;;;;;;13.15;7.05;;;;;;;20.40;57.96;99353.56;7765583;32;37090;-78
2023/06/11 02:12:07;;;;;;;12.55;6.75;;;;;;;20.57;56.42;99358.00;7765569;32;40146;-78
2023/06/11 02:16:24;;;;;;;9.40;5.60;;;;;;;20.54;56.47;99355.13;7764818;32;39887;-78
2023/06/11 02:20:40;;;;;;;11.27;5.72;;;;;;;20.57;56.38;99360.75;7765368;32;37655;-79
2023/06/11 02:24:57;;;;;;;10.73;5.80;;;;;;;20.57;56.24;99362.72;7765373;32;37832;-78
2023/06/11 02:29:13;;;;;;;10.93;6.05;;;;;;;20.55;56.54;99374.16;7765126;32;40268;-79
2023/06/11 02:33:29;;;;;;;10.30;5.20;;;;;;;20.73;56.05;99377.50;7764989;32;39859;-78
2023/06/11 02:37:46;;;;;;;9.10;5.50;;;;;;;20.73;56.23;99385.00;7765007;32;37681;-78
2023/06/11 02:42:02;;;;;;;9.65;5.85;;;;;;;20.58;57.20;99387.31;7765203;32;37901;-78
2023/06/11 02:46:19;;;;;;;10.82;5.93;;;;;;;20.56;57.57;99384.09;7765252;32;40115;-79
2023/06/11 02:50:35;;;;;;;10.35;6.22;;;;;;;20.56;58.04;99378.56;7765119;32;39967;-77
2023/06/11 02:54:51;;;;;;;12.45;7.03;;;;;;;20.60;58.33;99381.44;7764985;32;38360;-77
2023/06/11 02:59:08;;;;;;;8.57;5.87;;;;;;;20.42;59.56;99380.84;7764934;32;37774;-78
2023/06/11 03:03:24;;;;;;;11.40;6.82;;;;;;;20.51;58.99;99381.56;7764919;32;40063;-78
2023/06/11 03:07:41;;;;;;;7.90;5.72;;;;;;;20.46;59.51;99379.03;7764216;32;39917;-77
2023/06/11 03:11:57;;;;;;;11.65;5.62;;;;;;;20.49;59.37;99383.03;7764776;32;38025;-77
2023/06/11 03:16:13;;;;;;;8.63;6.03;;;;;;;20.44;59.38;99384.91;7764650;32;37341;-78
2023/06/11 03:20:30;;;;;;;10.63;6.75;;;;;;;20.32;60.58;99389.66;7764571;32;41324;-77
2023/06/11 03:24:46;;;;;;;11.90;6.50;;;;;;;20.31;61.37;99390.81;7764725;32;39756;-78
2023/06/11 03:29:03;;;;;;;12.13;6.18;;;;;;;20.41;60.19;99382.03;7764102;32;37853;-78
2023/06/11 03:33:19;;;;;;;9.73;6.03;;;;;;;20.36;60.14;99396.09;7750680;32;37075;-78
2023/06/11 03:37:36;;;;;;;11.75;6.03;;;;;;;20.33;60.46;99396.78;7764284;32;39999;-78
2023/06/11 03:41:52;;;;;;;10.13;6.10;;;;;;;20.49;59.49;99399.66;7764195;32;40075;-78
2023/06/11 03:46:08;;;;;;;9.40;5.95;;;;;;;20.49;59.46;99400.47;7764053;32;37928;-77
2023/06/11 03:50:25;;;;;;;11.80;5.97;;;;;;;20.56;59.94;99409.00;7763508;32;37135;-76
2023/06/11 03:54:41;;;;;;;13.02;5.50;;;;;;;20.50;59.24;99407.63;7763837;32;39400;-78
2023/06/11 03:58:58;;;;;;;8.73;5.00;;;;;;;20.54;58.91;99413.25;7763759;32;40766;-78
2023/06/11 04:03:14;;;;;;;10.93;4.97;;;;;;;20.59;58.57;99408.31;7763417;32;37783;-77
2023/06/11 04:07:30;;;;;;;11.93;5.30;;;;;;;20.65;57.57;99414.44;7763583;32;37320;-78
2023/06/11 04:11:47;;;;;;;14.45;4.45;;;;;;;20.77;56.66;99411.66;7763458;32;40132;-77
2023/06/11 04:16:03;;;;;;;9.02;5.10;;;;;;;20.81;56.37;99412.56;7763256;32;40169;-78
2023/06/11 04:20:22;;;;;;;6.75;4.57;;;;;;;20.92;55.54;99412.06;7763278;32;37723;-77
2023/06/11 04:24:39;;;;;;;6.55;4.30;;;;;;;20.96;55.46;99413.78;7763218;32;37009;-78
2023/06/11 04:28:56;;;;;;;7.97;4.25;;;;;;;20.85;55.25;99407.13;7763000;32;40162;-77
2023/06/11 04:33:15;;;;;;;8.20;4.55;;;;;;;20.96;55.46;99402.72;7762959;32;40826;-78
2023/06/11 04:37:38;;;;;;;8.48;4.30;;;;;;;20.92;55.05;99412.91;7762803;32;37894;-78
2023/06/11 04:41:54;;;;;;;7.50;4.60;;;;;;;21.17;53.78;99402.53;7762943;32;37853;-78
2023/06/11 04:46:11;;;;;;;6.82;4.28;;;;;;;21.17;53.52;99412.81;7762596;32;40139;-78
2023/06/11 04:50:28;;;;;;;6.45;4.47;;;;;;;21.25;52.93;99408.25;7762477;32;40777;-78
2023/06/11 04:54:45;;;;;;;9.60;3.78;;;;;;;21.41;53.40;99405.56;7762395;32;38625;-78
2023/06/11 04:59:05;;;;;;;7.12;4.32;;;;;;;21.52;52.82;99413.00;7761866;32;37838;-77
2023/06/11 05:03:24;;;;;;;8.93;4.43;;;;;;;21.30;52.61;99406.06;7763974;32;39153;-77
2023/06/11 05:07:41;;;;;;;8.38;4.60;;;;;;;21.64;52.36;99414.91;7766414;32;40303;-79
2023/06/11 05:11:58;;;;;;;6.20;4.32;;;;;;;21.47;53.10;99401.38;7766607;32;36175;-78
2023/06/11 05:16:14;;;;;;;7.60;4.40;;;;;;;21.43;53.78;99406.00;7766202;32;36898;-78
2023/06/11 05:20:31;;;;;;;8.98;4.32;;;;;;;21.75;53.03;99409.69;7766266;32;39327;-78
2023/06/11 05:24:47;;;;;;;7.97;4.30;;;;;;;21.94;52.01;99406.19;7766094;32;40052;-78
2023/06/11 05:29:04;;;;;;;6.50;4.22;;;;;;;21.96;51.57;99406.63;7765693;32;38635;-78
2023/06/11 05:33:22;;;;;;;7.82;4.30;;;;;;;21.99;52.32;99407.88;7752199;32;38088;-78
2023/06/11 05:37:38;;;;;;;8.45;4.28;;;;;;;22.27;50.52;99407.78;7752301;32;38231;-78
2023/06/11 05:41:55;;;;;;;7.90;4.35;;;;;;;22.54;51.64;99416.38;7765983;32;41076;-77
2023/06/11 05:46:12;;;;;;;7.05;4.00;;;;;;;22.52;50.06;99421.50;7765769;32;38882;-79
2023/06/11 05:50:28;;;;;;;7.07;4.00;;;;;;;22.47;51.61;99417.84;7765571;32;37042;-78
2023/06/11 05:54:45;;;;;;;6.45;4.12;;;;;;;22.44;51.19;99414.97;7765942;32;39317;-77
2023/06/11 05:59:01;;;;;;;7.75;3.95;;;;;;;22.27;51.52;99418.91;7765579;32;40038;-77
2023/06/11 06:03:17;;;;;;;8.45;3.83;;;;;;;22.36;52.40;99422.31;7765544;32;37880;-77
2023/06/11 06:07:35;;;;;;;8.57;4.32;;;;;;;22.43;50.77;99419.69;7765602;32;36880;-78
2023/06/11 06:11:52;;;;;;;8.27;3.90;;;;;;;22.64;50.07;99421.37;7765410;32;40093;-78
2023/06/11 06:16:08;;;;;;;7.07;4.00;;;;;;;22.69;50.89;99424.66;7765098;32;39696;-78
2023/06/11 06:20:24;;;;;;;6.68;4.32;;;;;;;23.19;50.81;99415.84;7765051;32;38090;-76
2023/06/11 06:24:41;;;;;;;5.97;3.67;;;;;;;23.18;50.68;99428.94;7765085;32;37818;-75
2023/06/11 06:28:57;;;;;;;5.10;3.60;;;;;;;23.56;48.16;99427.31;7765259;32;39532;-73
2023/06/11 06:33:13;;;;;;;7.03;3.83;;;;;;;23.78;48.64;99422.13;7764706;32;40007;-74
2023/06/11 06:37:30;;;;;;;7.12;3.83;;;;;;;23.88;47.68;99427.09;7765079;32;39079;-74
2023/06/11 06:41:46;;;;;;;6.50;3.47;;;;;;;23.84;48.28;99436.59;7765263;32;36836;-76
2023/06/11 06:46:02;;;;;;;8.35;3.53;;;;;;;24.37;46.97;99425.56;7765288;32;39474;-76
2023/06/11 06:50:19;;;;;;;9.07;3.85;;;;;;;24.34;46.77;99432.66;7764970;32;40116;-76
2023/06/11 06:54:35;;;;;;;6.82;3.17;;;;;;;24.48;47.67;99436.84;7764058;32;38839;-72
2023/06/11 06:58:51;;;;;;;4.85;3.55;;;;;;;24.85;45.32;99433.44;7738056;32;37495;-72
2023/06/11 07:03:09;;;;;;;6.82;3.80;;;;;;;24.55;46.89;99431.41;7737965;32;39293;-73
2023/06/11 07:07:25;;;;;;;5.78;3.37;;;;;;;25.04;45.76;99436.09;7740482;32;40040;-72
2023/06/11 07:11:41;;;;;;;13.95;3.92;;;;;;;25.22;45.06;99441.91;7764692;32;38586;-74
2023/06/11 07:15:58;;;;;;;6.43;3.90;;;;;;;25.57;44.93;99445.53;7764800;32;37127;-74
2023/06/11 07:20:14;;;;;;;5.10;3.47;;;;;;;25.75;45.63;99456.88;7764586;32;40083;-74
2023/06/11 07:24:31;;;;;;;5.32;3.10;;;;;;;25.59;45.26;99448.72;7763777;32;41068;-74
2023/06/11 07:28:47;;;;;;;5.43;3.22;;;;;;;25.76;43.08;99439.75;7763606;32;37893;-71
2023/06/11 07:33:04;;;;;;;5.40;3.78;;;;;;;25.93;43.95;99457.06;7764213;32;37000;-72
2023/06/11 07:37:20;;;;;;;7.05;3.40;;;;;;;25.51;43.60;99458.19;7764257;32;39212;-72
2023/06/11 07:41:37;;;;;;;8.05;3.78;;;;;;;25.76;45.02;99459.28;7764307;32;40798;-74
2023/06/11 07:45:53;;;;;;;5.00;3.15;;;;;;;25.48;45.56;99459.78;7763748;32;38008;-71
2023/06/11 07:50:10;;;;;;;5.60;3.20;;;;;;;25.40;45.84;99464.44;7764098;32;38014;-70
2023/06/11 07:54:27;;;;;;;5.85;3.62;;;;;;;25.54;45.08;99468.59;7763179;32;39425;-71
2023/06/11 07:58:44;;;;;;;6.62;3.50;;;;;;;25.53;44.93;99469.81;7762113;32;40824;-74
2023/06/11 08:03:00;;;;;;;7.55;3.33;;;;;;;25.33;44.97;99475.53;7763466;32;37737;-73
2023/06/11 08:07:16;;;;;;;9.43;3.85;;;;;;;25.24;45.60;99475.78;7763666;32;37756;-73
2023/06/11 08:11:33;;;;;;;11.82;4.22;;;;;;;25.39;44.72;99473.19;7753499;32;39425;-74
2023/06/11 08:15:49;;;;;;;7.50;3.80;;;;;;;25.34;47.27;99479.94;7762608;32;40957;-73
2023/06/11 08:20:07;;;;;;;8.65;3.90;;;;;;;25.32;46.50;99485.09;7759587;32;38141;-73
2023/06/11 08:24:24;;;;;;;5.70;3.37;;;;;;;25.53;46.46;99478.19;7742517;32;36625;-73
2023/06/11 08:28:40;;;;;;;6.82;3.47;;;;;;;25.63;46.50;99477.47;7752128;32;39214;-74
2023/06/11 08:32:56;;;;;;;8.63;3.45;;;;;;;26.16;45.63;99470.88;7761951;32;40902;-72
2023/06/11 08:37:13;;;;;;;5.80;3.22;;;;;;;26.28;45.34;99481.75;7763232;32;37921;-73
2023/06/11 08:41:29;;;;;;;5.45;3.28;;;;;;;26.67;44.68;99480.50;7766823;32;37180;-74
2023/06/11 08:45:46;;;;;;;11.02;3.35;;;;;;;26.98;45.55;99473.50;7766052;32;39249;-76
2023/06/11 08:50:02;;;;;;;8.27;3.30;;;;;;;27.37;44.21;99478.50;7766628;32;39777;-73
2023/06/11 08:54:19;;;;;;;7.22;3.70;;;;;;;27.66;41.37;99485.03;7751298;32;38851;-73
2023/06/11 08:58:36;;;;;;;4.60;3.05;;;;;;;27.62;43.13;99480.63;7766252;32;37080;-77
2023/06/11 09:02:52;;;;;;;4.32;3.05;;;;;;;27.56;44.05;99494.19;7765641;32;39959;-84
2023/06/11 09:07:10;;;;;;;5.10;2.95;;;;;;;27.79;41.35;99488.28;7752447;32;40083;-84
2023/06/11 09:11:36;;;;;;;5.07;3.45;;;;;;;27.75;39.65;99492.25;7765626;32;37784;-83
2023/06/11 09:15:55;;;;;;;3.53;2.72;;;;;;;27.67;40.89;99489.44;7766273;32;36996;-82
2023/06/11 09:20:15;;;;;;;3.87;2.85;;;;;;;27.46;41.51;99489.38;7766229;32;39446;-84
2023/06/11 09:24:33;;;;;;;5.65;2.95;;;;;;;27.21;41.22;99495.59;7766145;32;39978;-83
2023/06/11 09:28:53;;;;;;;3.67;2.90;;;;;;;27.12;40.64;99489.56;7765902;32;37945;-81
2023/06/11 09:33:17;;;;;;;6.05;3.20;;;;;;;27.09;41.62;99493.16;7765038;32;37297;-83
2023/06/11 09:37:49;;;;;;;3.87;2.80;;;;;;;27.13;42.17;99491.16;7765393;32;39463;-81
2023/06/11 09:42:10;;;;;;;4.60;3.28;;;;;;;27.20;42.54;99494.03;7751613;32;39731;-78
2023/06/11 09:46:26;;;;;;;4.45;3.00;;;;;;;27.12;43.47;99495.97;7739704;32;37888;-78
2023/06/11 09:50:43;;;;;;;5.10;2.95;;;;;;;26.89;43.48;99501.81;7765150;32;37354;-79
2023/06/11 09:54:59;;;;;;;9.32;3.37;;;;;;;26.94;42.85;99495.03;7751818;32;39358;-79
2023/06/11 09:59:16;;;;;;;3.33;2.58;;;;;;;26.75;43.83;99502.53;7749974;32;39901;-83
2023/06/11 10:03:33;;;;;;;4.60;2.87;;;;;;;26.70;42.48;99505.69;7748399;32;37846;-82
2023/06/11 10:08:22;;;;;;;9.10;3.30;;;;;;;26.79;42.18;99502.56;7763125;32;36679;-84
2023/06/11 10:12:39;;;;;;;4.90;2.92;;;;;;;26.83;43.82;99503.38;7751804;32;39179;-84
2023/06/11 10:16:56;;;;;;;4.90;2.78;;;;;;;26.70;41.53;99499.28;7763859;32;41361;-85
2023/06/11 10:21:12;;;;;;;4.75;2.80;;;;;;;26.98;42.49;99498.69;7755037;32;38069;-84
2023/06/11 10:25:36;;;;;;;4.82;2.90;;;;;;;27.22;42.41;99502.81;7765362;32;37095;-84
2023/06/11 10:29:52;;;;;;;7.50;3.00;;;;;;;27.77;42.15;99489.84;7750073;32;39184;-87
2023/06/11 10:34:12;;;;;;;4.12;2.60;;;;;;;28.23;42.35;99497.56;7750728;32;40836;-87
2023/06/11 10:38:37;;;;;;;3.53;2.33;;;;;;;28.83;39.15;99479.94;7750892;32;38685;-86
2023/06/11 10:42:54;;;;;;;9.43;2.30;;;;;;;29.24;39.47;99480.69;7740053;32;38833;-85
2023/06/11 10:47:11;;;;;;;3.87;1.62;;;;;;;29.49;37.61;99475.75;7764810;32;39261;-84
2023/06/11 10:51:37;;;;;;;2.65;1.70;;;;;;;29.72;36.90;99471.66;7764620;32;39984;-84
2023/06/11 10:55:55;;;;;;;3.45;1.67;;;;;;;29.53;35.76;99487.78;7750585;32;37940;-85
2023/06/11 11:00:13;;;;;;;2.28;1.60;;;;;;;29.83;36.64;99475.22;7763010;32;37821;-84
2023/06/11 11:04:30;;;;;;;1.70;1.60;;;;;;;29.88;37.14;99474.78;7764576;32;39393;-83
2023/06/11 11:08:47;;;;;;;2.40;1.70;;;;;;;30.07;35.76;99476.25;7763946;32;39936;-84
2023/06/11 11:13:03;;;;;;;1.65;1.50;;;;;;;30.02;36.15;99476.69;7764486;32;38057;-84
2023/06/11 11:17:20;;;;;;;2.92;1.48;;;;;;;30.12;34.86;99477.84;7763851;32;35809;-85
2023/06/11 11:21:37;;;;;;;5.03;1.80;;;;;;;30.46;34.45;99474.38;7749239;32;39996;-85
2023/06/11 11:25:53;;;;;;;4.50;1.70;;;;;;;30.24;36.33;99470.94;7746703;32;40708;-85
2023/06/11 11:30:10;;;;;;;2.45;1.48;;;;;;;30.46;35.22;99474.38;7763673;32;37908;-85
2023/06/11 11:34:28;;;;;;;1.60;1.40;;;;;;;30.77;36.88;99471.69;7749708;32;38340;-85
2023/06/11 11:38:45;;;;;;;1.80;1.30;;;;;;;30.81;35.21;99464.00;7762541;32;39468;-80
2023/06/11 11:43:01;;;;;;;1.90;1.35;;;;;;;31.40;34.09;99457.31;7762592;32;40018;-81
2023/06/11 11:47:20;;;;;;;5.07;1.65;;;;;;;30.94;35.51;99465.09;7745720;32;37607;-80
2023/06/11 11:51:51;;;;;;;2.90;1.35;;;;;;;30.99;33.38;99466.66;7760150;32;38875;-81
2023/06/11 11:56:07;;;;;;;4.62;1.40;;;;;;;31.10;35.63;99461.72;7760275;32;39493;-80
2023/06/11 12:00:27;;;;;;;2.78;1.35;;;;;;;31.57;35.50;99461.94;7760741;32;39535;-81
2023/06/11 12:04:47;;;;;;;3.75;1.50;;;;;;;31.34;34.19;99457.00;7760089;32;38459;-79
2023/06/11 12:09:07;;;;;;;1.10;1.00;;;;;;;31.47;34.73;99454.41;7748001;32;37132;-80
2023/06/11 12:13:24;;;;;;;2.05;1.30;;;;;;;31.82;35.39;99450.34;7765233;32;40154;-80
2023/06/11 12:17:40;;;;;;;1.30;1.20;;;;;;;31.19;33.81;99455.56;7766613;32;39782;-81
2023/06/11 12:21:57;;;;;;;3.28;1.40;;;;;;;30.88;35.28;99450.66;7761049;32;37951;-80
2023/06/11 12:26:13;;;;;;;1.95;1.17;;;;;;;31.21;34.56;99433.44;7765643;32;37857;-80
2023/06/11 12:30:31;;;;;;;4.93;1.50;;;;;;;30.88;33.85;99433.78;7754362;32;40601;-80
2023/06/11 12:34:48;;;;;;;2.58;1.37;;;;;;;31.44;33.94;99425.09;7766549;32;40062;-81
2023/06/11 12:39:04;;;;;;;2.03;1.30;;;;;;;31.72;34.02;99427.94;7765829;32;38505;-85
2023/06/11 12:43:22;;;;;;;3.70;1.30;;;;;;;30.87;33.89;99434.19;7751560;32;37283;-81
2023/06/11 12:47:41;;;;;;;1.60;1.00;;;;;;;30.70;34.96;99433.97;7761956;32;39333;-88
2023/06/11 12:51:57;;;;;;;1.48;1.20;;;;;;;30.46;34.92;99435.00;7761581;32;40818;-87
2023/06/11 12:56:17;;;;;;;2.45;1.27;;;;;;;30.67;33.95;99434.81;7762404;32;37932;-87
2023/06/11 13:00:35;;;;;;;1.30;1.08;;;;;;;31.05;32.61;99426.38;7762982;32;37851;-87
2023/06/11 13:04:51;;;;;;;1.10;1.00;;;;;;;30.57;35.29;99438.53;7765490;32;39394;-78
2023/06/11 13:09:08;;;;;;;4.00;1.40;;;;;;;30.32;36.68;99435.91;7766248;32;40989;-79
2023/06/11 13:13:24;;;;;;;2.40;0.98;;;;;;;31.17;34.55;99452.37;7765429;32;38593;-81
2023/06/11 13:17:41;;;;;;;2.35;1.30;;;;;;;30.88;34.27;99439.41;7748908;32;37050;-81
2023/06/11 13:21:57;;;;;;;3.90;1.33;;;;;;;31.27;34.43;99435.34;7764343;32;39432;-81
2023/06/11 13:26:13;;;;;;;5.07;1.25;;;;;;;31.45;33.54;99440.75;7761917;32;40002;-80
2023/06/11 13:30:30;;;;;;;3.12;1.40;;;;;;;31.27;34.38;99437.37;7762768;32;38699;-81
2023/06/11 13:34:46;;;;;;;4.87;1.52;;;;;;;31.26;34.20;99432.97;7762230;32;36852;-82
2023/06/11 13:39:03;;;;;;;4.37;1.20;;;;;;;31.25;32.91;99435.00;7762099;32;40078;-81
2023/06/11 13:43:19;;;;;;;1.40;1.30;;;;;;;31.23;34.44;99430.97;7762153;32;39973;-80
2023/06/11 13:47:36;;;;;;;1.92;1.40;;;;;;;31.47;34.05;99434.69;7762075;32;39071;-83
2023/06/11 13:51:54;;;;;;;4.20;1.40;;;;;;;31.67;34.66;99440.50;7762728;32;37739;-83
2023/06/11 13:56:13;;;;;;;3.10;1.33;;;;;;;31.68;32.88;99439.25;7763168;32;38461;-82
2023/06/11 14:00:30;;;;;;;1.20;1.08;;;;;;;31.90;31.77;99430.50;7761120;32;39977;-83
2023/06/11 14:04:46;;;;;;;1.48;1.35;;;;;;;31.60;32.83;99432.16;7763568;32;37647;-83
2023/06/11 14:09:04;;;;;;;1.20;1.10;;;;;;;31.55;32.63;99424.16;7765596;32;38142;-83
2023/06/11 14:13:20;;;;;;;3.47;1.50;;;;;;;31.65;32.24;99420.41;7753076;32;39179;-80
2023/06/11 14:17:39;;;;;;;1.42;1.10;;;;;;;32.04;31.39;99424.63;7742555;32;40802;-81
2023/06/11 14:21:57;;;;;;;1.87;1.23;;;;;;;31.69;31.61;99440.84;7749646;32;37855;-82
2023/06/11 14:26:14;;;;;;;1.20;1.08;;;;;;;31.53;31.16;99443.50;7762293;32;37875;-82
2023/06/11 14:30:30;;;;;;;2.17;1.20;;;;;;;31.88;31.17;99442.19;7744914;32;176280;-83
2023/06/11 14:34:47;;;;;;;2.42;1.40;;;;;;;31.92;30.61;99440.09;7743883;32;40803;-84
2023/06/11 14:39:03;;;;;;;1.70;1.10;;;;;;;32.04;31.58;99441.53;7757960;32;38028;-82
2023/06/11 14:43:19;;;;;;;1.45;1.17;;;;;;;31.73;31.19;99430.31;7765403;32;37115;-83
2023/06/11 14:47:37;;;;;;;1.58;1.17;;;;;;;31.14;30.91;99428.69;7765253;32;39474;-83
2023/06/11 14:51:53;;;;;;;1.52;1.10;;;;;;;31.64;30.43;99427.25;7751458;32;40025;-84
2023/06/11 14:56:10;;;;;;;1.20;1.10;;;;;;;31.04;30.43;99424.75;7764439;32;37980;-81
2023/06/11 15:00:26;;;;;;;1.83;1.27;;;;;;;30.89;31.16;99429.75;7764858;32;37202;-81
2023/06/11 15:04:44;;;;;;;1.30;1.17;;;;;;;31.36;31.60;99426.41;7762023;32;39303;-81
2023/06/11 15:09:00;;;;;;;2.83;1.35;;;;;;;31.33;31.25;99435.69;7761932;32;39764;-81
2023/06/11 15:13:17;;;;;;;2.75;1.50;;;;;;;31.01;32.55;99436.87;7764263;32;37965;-78
2023/06/11 15:17:35;;;;;;;2.35;1.10;;;;;;;31.08;30.65;99430.37;7764116;32;37110;-79
2023/06/11 15:21:52;;;;;;;2.90;1.70;;;;;;;30.08;32.60;99440.50;7764790;32;39243;-79
2023/06/11 15:26:09;;;;;;;5.47;1.58;;;;;;;30.00;33.42;99450.22;7764652;32;40825;-78
2023/06/11 15:30:26;;;;;;;1.52;1.42;;;;;;;29.89;33.17;99470.78;7764250;32;38965;-78
2023/06/11 15:34:42;;;;;;;2.45;1.80;;;;;;;29.98;32.41;99475.09;7764408;32;37889;-79
2023/06/11 15:38:59;;;;;;;4.95;2.00;;;;;;;29.31;33.05;99477.84;7763296;32;39503;-78
2023/06/11 15:43:15;;;;;;;5.28;1.77;;;;;;;29.52;32.55;99477.75;7764183;32;40021;-79
2023/06/11 15:47:32;;;;;;;1.62;1.52;;;;;;;28.80;32.23;99480.78;7763051;32;37855;-80
2023/06/11 15:51:48;;;;;;;3.47;1.42;;;;;;;28.61;33.56;99490.41;7764444;32;37284;-74
2023/06/11 15:56:04;;;;;;;4.80;2.00;;;;;;;28.66;32.99;99494.81;7744964;32;39609;-74
2023/06/11 16:00:21;;;;;;;3.72;1.77;;;;;;;28.51;34.00;99490.37;7763933;32;40833;-75
2023/06/11 16:04:38;;;;;;;5.22;1.95;;;;;;;28.20;34.71;99503.97;7763546;32;38194;-76
2023/06/11 16:08:54;;;;;;;2.92;1.70;;;;;;;28.12;33.82;99491.16;7763788;32;36868;-75
2023/06/11 16:13:10;;;;;;;4.93;1.58;;;;;;;27.78;34.13;99500.66;7763279;32;39983;-76
2023/06/11 16:17:27;;;;;;;1.62;1.50;;;;;;;27.57;34.85;99507.00;7763367;32;39843;-75
2023/06/11 16:21:43;;;;;;;2.42;1.80;;;;;;;27.12;35.62;99525.94;7738574;32;37902;-74
2023/06/11 16:25:59;;;;;;;2.05;1.40;;;;;;;27.16;34.98;99513.59;7763284;32;37109;-75
2023/06/11 16:30:16;;;;;;;3.05;1.60;;;;;;;26.98;35.90;99526.66;7762919;32;40449;-74
2023/06/11 16:34:32;;;;;;;3.30;2.03;;;;;;;26.86;35.85;99516.59;7762569;32;40608;-75
2023/06/11 16:38:48;;;;;;;3.15;1.50;;;;;;;26.74;35.58;99522.50;7762418;32;38700;-76
2023/06/11 16:43:05;;;;;;;2.60;1.37;;;;;;;26.64;35.96;99528.81;7762632;32;37029;-77
2023/06/11 16:47:22;;;;;;;3.55;1.40;;;;;;;26.28;36.58;99528.44;7762757;32;39431;-84
2023/06/11 16:51:38;;;;;;;7.95;2.05;;;;;;;26.33;36.24;99531.69;7748222;32;40801;-81
2023/06/11 16:55:55;;;;;;;5.15;1.77;;;;;;;26.23;36.62;99540.78;7762392;32;37855;-81
2023/06/11 17:00:12;;;;;;;4.25;1.90;;;;;;;25.80;37.29;99538.31;7765606;32;36043;-81
2023/06/11 17:04:29;;;;;;;3.53;1.92;;;;;;;25.83;36.42;99547.91;7766412;32;39357;-79
2023/06/11 17:08:45;;;;;;;2.70;1.52;;;;;;;25.61;37.51;99547.66;7765537;32;40793;-79
2023/06/11 17:13:02;;;;;;;3.30;1.77;;;;;;;25.30;37.40;99543.22;7766156;32;37892;-80
2023/06/11 17:17:18;;;;;;;4.25;1.67;;;;;;;25.37;37.66;99543.34;7751147;32;37034;-82
2023/06/11 17:21:35;;;;;;;7.03;1.73;;;;;;;25.03;38.73;99540.44;7766164;32;39168;-82
2023/06/11 17:25:51;;;;;;;2.40;2.03;;;;;;;24.93;38.65;99546.66;7765868;32;40208;-76
2023/06/11 17:30:09;;;;;;;2.25;1.45;;;;;;;25.09;38.71;99543.72;7764310;32;37577;-81
2023/06/11 17:34:26;;;;;;;1.80;1.42;;;;;;;24.94;39.37;99548.28;7766038;32;36546;-82
2023/06/11 17:38:43;;;;;;;1.87;1.65;;;;;;;24.88;38.95;99555.34;7765894;32;40074;-81
2023/06/11 17:43:00;;;;;;;2.95;1.95;;;;;;;24.86;40.25;99557.72;7765836;32;40236;-80
2023/06/11 17:47:17;;;;;;;2.30;1.80;;;;;;;24.88;39.30;99561.72;7766273;32;38712;-80
2023/06/11 17:51:34;;;;;;;3.45;2.25;;;;;;;24.73;39.44;99566.28;7765941;32;36937;-79
2023/06/11 17:55:51;;;;;;;4.03;2.12;;;;;;;24.73;40.09;99569.06;7763499;32;40008;-78
2023/06/11 18:00:08;;;;;;;4.75;2.15;;;;;;;24.72;39.51;99558.28;7764389;32;40425;-79
2023/06/11 18:04:24;;;;;;;3.85;1.85;;;;;;;24.66;39.69;99556.97;7765037;32;38555;-80
2023/06/11 18:08:41;;;;;;;2.53;1.83;;;;;;;24.55;39.47;99556.81;7762405;32;37052;-88
2023/06/11 18:12:58;;;;;;;3.60;2.08;;;;;;;24.44;39.35;99553.81;7748406;32;40129;-85
2023/06/11 18:17:15;;;;;;;3.55;2.00;;;;;;;24.31;39.79;99544.03;7747133;32;40701;-86
2023/06/11 18:21:31;;;;;;;3.37;2.08;;;;;;;24.38;39.43;99539.38;7748684;32;37929;-85
2023/06/11 18:25:48;;;;;;;2.97;2.15;;;;;;;24.36;38.69;99547.28;7765033;32;37950;-85
2023/06/11 18:30:06;;;;;;;8.93;2.08;;;;;;;24.12;39.21;99553.22;7764523;32;39205;-87
2023/06/11 18:34:22;;;;;;;3.08;1.90;;;;;;;23.98;39.33;99559.31;7748370;32;39541;-84
2023/06/11 18:38:39;;;;;;;3.72;1.87;;;;;;;23.93;39.59;99563.19;7763191;32;38662;-85
2023/06/11 18:42:56;;;;;;;3.70;2.15;;;;;;;23.99;39.01;99567.31;7761434;32;37847;-79
2023/06/11 18:47:12;;;;;;;5.20;2.03;;;;;;;23.61;39.25;99571.69;7761243;32;39878;-80
2023/06/11 18:51:29;;;;;;;3.83;2.00;;;;;;;23.48;39.35;99574.97;7761993;32;40108;-79
2023/06/11 18:55:45;;;;;;;2.65;1.98;;;;;;;22.67;41.54;99587.34;7761798;32;38005;-79
2023/06/11 19:00:02;;;;;;;3.83;2.08;;;;;;;23.34;40.73;99587.38;7762251;32;37789;-79
2023/06/11 19:04:21;;;;;;;4.18;2.03;;;;;;;23.32;40.79;99597.25;7761781;32;39418;-79
2023/06/11 19:08:38;;;;;;;4.28;2.10;;;;;;;23.29;41.06;99606.34;7763925;32;40096;-78
2023/06/11 19:12:55;;;;;;;3.72;2.00;;;;;;;23.29;40.79;99607.13;7764230;32;37701;-77
2023/06/11 19:17:11;;;;;;;2.90;2.00;;;;;;;23.04;41.94;99624.00;7751017;32;37083;-77
2023/06/11 19:21:28;;;;;;;3.40;2.00;;;;;;;23.01;42.95;99618.38;7763573;32;39111;-78
2023/06/11 19:25:44;;;;;;;3.05;1.87;;;;;;;23.03;43.24;99625.16;7764608;32;40791;-77
2023/06/11 19:30:02;;;;;;;5.32;2.15;;;;;;;22.76;42.81;99632.41;7764462;32;38024;-77
2023/06/11 19:34:18;;;;;;;11.15;2.35;;;;;;;22.80;42.98;99641.69;7764533;32;37027;-78
2023/06/11 19:38:36;;;;;;;3.12;2.12;;;;;;;22.40;43.83;99650.13;7760506;32;40047;-78
2023/06/11 19:42:53;;;;;;;4.95;2.40;;;;;;;22.58;42.90;99653.41;7754216;32;40839;-77
2023/06/11 19:47:09;;;;;;;3.28;2.25;;;;;;;22.17;43.44;99655.41;7755045;32;37882;-77
2023/06/11 19:51:29;;;;;;;3.90;2.15;;;;;;;22.41;42.90;99660.88;7758143;32;37330;-76
2023/06/11 19:55:46;;;;;;;5.10;2.53;;;;;;;22.24;44.75;99658.37;7745967;32;39133;-77
2023/06/11 20:00:03;;;;;;;6.37;2.12;;;;;;;22.11;44.02;99665.94;7761461;32;38995;-77
2023/06/11 20:04:21;;;;;;;2.97;2.10;;;;;;;21.97;44.12;99662.75;7761163;32;37813;-77
2023/06/11 20:08:38;;;;;;;3.92;2.10;;;;;;;21.86;45.27;99673.56;7735202;32;36991;-77